Time;durP1;ratioP1;P1;durP2;ratioP2;P2;SDS_P1;SDS_P2;PMS_P1;PMS_P2;Temp;Humidity;BMP_temperature;BMP_pressure;BME280_temperature;BME280_humidity;BME280_pressure;Samples;Min_cycle;Max_cycle;Signal;HPM_P1;HPM_P2
2021/12/08 00:00:16;;;;;;;9.25;4.32;;;5.00;80.20;;;;;;6040117;23;88364;-72
2021/12/08 00:02:44;;;;;;;7.13;3.53;;;5.00;80.70;;;;;;6040530;23;88264;-72
2021/12/08 00:05:13;;;;;;;5.68;3.53;;;4.90;81.50;;;;;;6039137;23;101194;-67
2021/12/08 00:07:40;;;;;;;7.05;4.07;;;4.80;81.90;;;;;;6040296;23;88660;-67
2021/12/08 00:13:07;;;;;;;9.55;4.20;;;4.70;83.00;;;;;;6040327;23;88335;-68
2021/12/08 00:15:35;;;;;;;9.57;4.80;;;4.60;83.40;;;;;;6040155;23;90192;-68
2021/12/08 00:18:06;;;;;;;7.97;4.93;;;4.50;83.80;;;;;;6014001;23;89587;-67
2021/12/08 00:20:36;;;;;;;7.57;4.82;;;4.50;84.40;;;;;;6040134;23;89089;-68
2021/12/08 00:23:04;;;;;;;9.38;4.72;;;4.40;84.90;;;;;;6039839;23;87949;-67
2021/12/08 00:25:32;;;;;;;12.60;4.78;;;4.40;85.10;;;;;;6039851;23;89407;-67
2021/12/08 00:27:59;;;;;;;10.55;5.20;;;4.40;85.40;;;;;;6014110;23;91263;-68
2021/12/08 00:30:28;;;;;;;12.00;4.25;;;4.40;85.70;;;;;;6039683;23;89454;-67
2021/12/08 00:32:57;;;;;;;7.38;4.38;;;4.40;85.60;;;;;;6062619;23;88060;-67
2021/12/08 00:35:27;;;;;;;13.40;4.30;;;4.40;85.50;;;;;;6013773;23;89386;-67
2021/12/08 00:37:55;;;;;;;12.85;4.32;;;4.30;85.60;;;;;;6040279;23;88598;-67
2021/12/08 00:40:23;;;;;;;12.52;4.47;;;4.40;85.80;;;;;;6039692;23;88440;-68
2021/12/08 00:42:50;;;;;;;12.07;5.45;;;4.40;86.00;;;;;;6039737;23;89014;-68
2021/12/08 00:45:18;;;;;;;7.38;4.50;;;4.40;85.90;;;;;;6039765;23;88124;-67
2021/12/08 00:47:46;;;;;;;6.85;3.92;;;4.40;86.00;;;;;;6039215;23;106461;-68
2021/12/08 00:50:15;;;;;;;7.25;4.68;;;4.40;85.80;;;;;;6039583;23;88402;-67
2021/12/08 00:52:41;;;;;;;7.18;3.58;;;4.50;85.90;;;;;;6014514;23;88040;-67
2021/12/08 00:55:14;;;;;;;6.43;3.63;;;4.50;85.40;;;;;;6013660;23;88347;-68
2021/12/08 00:57:42;;;;;;;8.13;4.00;;;4.50;85.60;;;;;;6040052;23;88697;-67
2021/12/08 01:00:14;;;;;;;7.40;4.05;;;4.60;85.10;;;;;;6040079;23;88281;-67
2021/12/08 01:02:41;;;;;;;5.40;2.97;;;4.70;86.10;;;;;;6040080;23;87972;-67
2021/12/08 01:05:10;;;;;;;4.05;3.10;;;4.70;85.30;;;;;;6039554;23;94882;-67
2021/12/08 01:07:37;;;;;;;5.35;2.83;;;4.70;85.10;;;;;;6039699;23;89367;-67
2021/12/08 01:10:08;;;;;;;5.65;2.63;;;4.70;84.40;;;;;;6039902;23;88089;-68
2021/12/08 01:12:56;;;;;;;6.05;2.97;;;4.80;85.00;;;;;;6040100;23;88044;-68
2021/12/08 01:15:26;;;;;;;4.53;2.88;;;4.80;84.80;;;;;;6039533;23;88082;-67
2021/12/08 01:17:54;;;;;;;7.45;3.70;;;4.70;84.60;;;;;;6039898;23;89502;-68
2021/12/08 01:20:21;;;;;;;7.68;2.67;;;4.70;85.00;;;;;;6039602;23;88213;-68
2021/12/08 01:22:48;;;;;;;5.43;2.78;;;4.80;85.20;;;;;;6014395;23;88449;-68
2021/12/08 01:25:15;;;;;;;5.38;2.70;;;4.80;84.50;;;;;;6040088;23;88106;-67
2021/12/08 01:27:43;;;;;;;4.15;2.30;;;4.90;85.00;;;;;;6039866;23;88548;-68
2021/12/08 01:30:12;;;;;;;4.90;2.70;;;4.90;85.00;;;;;;6014210;23;88573;-67
2021/12/08 01:32:39;;;;;;;4.57;2.63;;;4.90;84.50;;;;;;6039484;23;88728;-68
2021/12/08 01:35:07;;;;;;;6.60;3.10;;;4.90;84.80;;;;;;6062234;23;88201;-67
2021/12/08 01:37:34;;;;;;;2.90;2.58;;;5.00;84.90;;;;;;6039598;23;88762;-67
2021/12/08 01:40:04;;;;;;;4.63;2.60;;;5.00;84.30;;;;;;6014357;23;90687;-67
2021/12/08 01:42:42;;;;;;;4.43;2.70;;;5.10;84.70;;;;;;6039618;23;87940;-67
2021/12/08 01:47:58;;;;;;;7.95;2.80;;;5.10;84.10;;;;;;6039601;23;88709;-67
2021/12/08 01:50:25;;;;;;;4.07;2.60;;;5.20;84.10;;;;;;6038840;23;88419;-67
2021/12/08 01:52:53;;;;;;;3.13;2.17;;;5.20;83.60;;;;;;6039894;23;87837;-68
2021/12/08 01:55:20;;;;;;;5.32;2.60;;;5.30;84.40;;;;;;6039332;23;90137;-67
2021/12/08 01:57:47;;;;;;;6.05;3.22;;;5.30;84.40;;;;;;6039246;23;89335;-68
2021/12/08 02:00:29;;;;;;;5.10;2.40;;;5.30;83.20;;;;;;6039792;23;89215;-68
2021/12/08 02:02:57;;;;;;;6.05;3.78;;;5.30;83.40;;;;;;6039906;23;87974;-68
2021/12/08 02:05:25;;;;;;;5.25;2.88;;;5.30;83.80;;;;;;6039353;23;90047;-68
2021/12/08 02:07:52;;;;;;;4.40;2.80;;;5.30;83.70;;;;;;6039783;23;88590;-67
2021/12/08 02:10:20;;;;;;;4.28;2.90;;;5.30;83.50;;;;;;6039357;23;89274;-68
2021/12/08 02:12:48;;;;;;;3.40;2.80;;;5.30;83.10;;;;;;6039857;23;88248;-67
2021/12/08 02:15:17;;;;;;;3.15;2.85;;;5.30;83.20;;;;;;6013840;23;92551;-67
2021/12/08 02:17:50;;;;;;;4.72;3.00;;;5.30;83.30;;;;;;6014026;23;88689;-67
2021/12/08 02:20:20;;;;;;;4.72;2.20;;;5.20;83.70;;;;;;6039722;23;89885;-68
2021/12/08 02:22:48;;;;;;;2.88;2.67;;;5.20;83.40;;;;;;6039299;23;88724;-68
2021/12/08 02:25:20;;;;;;;4.88;2.63;;;5.20;83.30;;;;;;6039400;23;88264;-67
2021/12/08 02:27:48;;;;;;;5.63;2.80;;;5.20;83.50;;;;;;6039640;23;88690;-67
2021/12/08 02:30:34;;;;;;;5.72;3.08;;;5.30;84.10;;;;;;6039566;23;88222;-67
2021/12/08 02:49:25;;;;;;;5.22;2.58;;;5.40;84.20;;;;;;6038514;23;89416;-67
2021/12/08 02:51:53;;;;;;;3.63;2.78;;;5.40;83.70;;;;;;6038842;23;89354;-67
2021/12/08 02:54:21;;;;;;;5.03;2.70;;;5.40;84.20;;;;;;6013197;23;91341;-68
2021/12/08 02:56:49;;;;;;;4.10;3.47;;;5.40;84.10;;;;;;6012973;23;88224;-68
2021/12/08 02:59:16;;;;;;;4.43;3.15;;;5.40;84.20;;;;;;6013436;23;94820;-68
2021/12/08 03:01:43;;;;;;;6.95;3.47;;;5.30;84.10;;;;;;6013501;23;88384;-67
2021/12/08 03:04:10;;;;;;;6.25;3.05;;;5.30;84.60;;;;;;6039604;23;87995;-67
2021/12/08 03:06:37;;;;;;;5.13;2.92;;;5.30;84.40;;;;;;6039468;23;88326;-67
2021/12/08 03:09:06;;;;;;;4.30;2.70;;;5.40;84.70;;;;;;6038465;23;107239;-67
2021/12/08 03:11:34;;;;;;;4.20;2.60;;;5.40;84.50;;;;;;6038960;23;88218;-67
2021/12/08 03:14:08;;;;;;;3.50;3.00;;;5.40;84.60;;;;;;6013310;23;88668;-67
2021/12/08 03:16:39;;;;;;;6.00;3.35;;;5.40;84.90;;;;;;6039006;23;88160;-67
2021/12/08 03:19:06;;;;;;;2.33;2.08;;;5.40;84.20;;;;;;6039208;23;88851;-67
2021/12/08 03:21:34;;;;;;;2.90;2.60;;;5.40;84.30;;;;;;6038666;23;88448;-67
2021/12/08 03:26:43;;;;;;;5.33;3.43;;;5.40;84.80;;;;;;6038898;23;88051;-67
2021/12/08 03:29:20;;;;;;;4.50;2.80;;;5.50;85.10;;;;;;6013346;23;90728;-67
2021/12/08 03:31:50;;;;;;;6.80;3.67;;;5.60;84.90;;;;;;6039263;23;88933;-67
2021/12/08 03:34:20;;;;;;;5.15;3.00;;;5.60;84.50;;;;;;6039084;23;87970;-67
2021/12/08 03:36:47;;;;;;;5.80;3.15;;;5.60;84.90;;;;;;6013915;23;88116;-67
2021/12/08 03:39:14;;;;;;;4.72;2.50;;;5.60;84.80;;;;;;6036068;23;106280;-67
2021/12/08 03:41:41;;;;;;;5.97;3.30;;;5.60;84.50;;;;;;6036966;23;90221;-67
2021/12/08 03:44:09;;;;;;;3.72;3.00;;;5.70;85.00;;;;;;6013526;23;87972;-67
2021/12/08 03:46:40;;;;;;;3.72;3.42;;;5.70;85.20;;;;;;6038709;23;88131;-67
2021/12/08 03:49:13;;;;;;;3.78;3.45;;;5.80;85.20;;;;;;6038949;23;88674;-67
2021/12/08 03:51:41;;;;;;;5.97;2.70;;;5.80;84.90;;;;;;6038129;23;88421;-67
2021/12/08 03:54:10;;;;;;;4.18;3.65;;;5.80;84.70;;;;;;6038808;23;87970;-68
2021/12/08 03:56:38;;;;;;;6.25;3.25;;;5.80;85.10;;;;;;6038941;23;88085;-67
2021/12/08 03:59:05;;;;;;;7.53;3.53;;;5.80;84.90;;;;;;6038877;23;88580;-67
2021/12/08 04:01:34;;;;;;;4.07;3.38;;;5.90;85.30;;;;;;6013098;23;88490;-67
2021/12/08 04:04:06;;;;;;;3.13;2.85;;;5.90;85.00;;;;;;6038338;23;88765;-67
2021/12/08 04:06:50;;;;;;;3.78;3.45;;;6.00;84.60;;;;;;6038506;23;88549;-67
2021/12/08 04:09:27;;;;;;;6.85;4.90;;;6.00;84.90;;;;;;6039187;23;88560;-67
2021/12/08 04:11:54;;;;;;;5.28;4.32;;;6.10;85.10;;;;;;6039851;23;88301;-67
2021/12/08 04:14:24;;;;;;;3.38;3.08;;;6.10;85.00;;;;;;6013995;23;105633;-67
2021/12/08 04:17:01;;;;;;;6.72;4.00;;;6.00;84.40;;;;;;6014336;23;88359;-67
2021/12/08 04:19:29;;;;;;;8.25;5.45;;;6.10;85.00;;;;;;6038634;23;89557;-68
2021/12/08 04:22:00;;;;;;;7.90;5.18;;;6.10;85.70;;;;;;6040087;23;88468;-67
2021/12/08 04:24:27;;;;;;;6.35;5.40;;;6.20;85.10;;;;;;6040264;23;87994;-67
2021/12/08 04:27:02;;;;;;;6.18;5.60;;;6.20;85.10;;;;;;6039818;23;87981;-68
2021/12/08 04:29:32;;;;;;;6.05;5.40;;;6.30;85.20;;;;;;6039754;23;89339;-67
2021/12/08 04:32:00;;;;;;;7.22;4.80;;;6.40;85.30;;;;;;6039942;23;89006;-67
2021/12/08 04:34:33;;;;;;;5.85;4.97;;;6.40;84.70;;;;;;6040185;23;88007;-67
2021/12/08 04:37:09;;;;;;;4.95;4.28;;;6.40;84.60;;;;;;6014276;23;89575;-67
2021/12/08 04:39:59;;;;;;;4.78;4.32;;;6.40;84.70;;;;;;6040283;23;88549;-67
2021/12/08 04:42:49;;;;;;;5.22;4.75;;;6.40;84.50;;;;;;6040229;23;88420;-67
2021/12/08 04:45:25;;;;;;;5.45;4.80;;;6.30;84.70;;;;;;6040346;23;88364;-72
2021/12/08 05:07:51;;;;;;;7.28;6.18;;;6.60;84.60;;;;;;6037510;23;87941;-67
2021/12/08 05:10:25;;;;;;;6.03;5.43;;;6.60;84.50;;;;;;6040272;23;88265;-67
2021/12/08 05:12:53;;;;;;;9.02;7.15;;;6.60;84.60;;;;;;6039800;23;88583;-67
2021/12/08 05:15:25;;;;;;;7.32;4.80;;;6.70;84.80;;;;;;6040495;23;87639;-71
2021/12/08 05:17:56;;;;;;;7.70;6.50;;;6.70;84.70;;;;;;6039711;23;88479;-72
2021/12/08 05:20:40;;;;;;;6.40;5.88;;;6.70;85.10;;;;;;6039998;23;88340;-71
2021/12/08 05:23:31;;;;;;;6.10;5.07;;;6.70;84.90;;;;;;6039600;23;89582;-72
2021/12/08 05:26:02;;;;;;;9.23;6.28;;;6.70;84.60;;;;;;6039845;23;89145;-72
2021/12/08 05:28:30;;;;;;;6.93;5.88;;;6.80;84.80;;;;;;6040272;23;88013;-72
2021/12/08 05:31:00;;;;;;;7.28;5.55;;;6.80;84.20;;;;;;6039694;23;88159;-72
2021/12/08 05:33:28;;;;;;;8.48;6.25;;;6.70;84.30;;;;;;6039891;23;87997;-72
2021/12/08 05:35:56;;;;;;;7.05;6.32;;;6.70;85.40;;;;;;6039452;23;87953;-71
2021/12/08 05:38:24;;;;;;;6.70;5.88;;;6.60;84.50;;;;;;6040055;23;87955;-72
2021/12/08 05:41:02;;;;;;;8.48;5.60;;;6.60;84.90;;;;;;6014154;23;90991;-72
2021/12/08 05:43:30;;;;;;;6.55;5.82;;;6.60;85.20;;;;;;6039981;23;88770;-72
2021/12/08 05:45:58;;;;;;;5.68;4.47;;;6.60;85.20;;;;;;6039196;23;99210;-71
2021/12/08 05:48:29;;;;;;;6.25;5.65;;;6.50;84.60;;;;;;6013708;23;89200;-72
2021/12/08 05:51:11;;;;;;;6.53;5.80;;;6.50;84.90;;;;;;6013538;23;89507;-71
2021/12/08 05:53:41;;;;;;;8.20;6.28;;;6.50;85.50;;;;;;6039513;23;88739;-72
2021/12/08 05:56:08;;;;;;;8.10;6.15;;;6.50;85.50;;;;;;6039526;23;88429;-72
2021/12/08 05:58:37;;;;;;;8.68;6.90;;;6.50;86.00;;;;;;6013992;23;87964;-72
2021/12/08 06:01:19;;;;;;;7.65;5.90;;;6.50;85.40;;;;;;6039138;23;97760;-72
2021/12/08 06:03:49;;;;;;;10.60;6.32;;;6.50;85.20;;;;;;6039508;23;91276;-71
2021/12/08 06:06:21;;;;;;;9.23;6.30;;;6.50;85.30;;;;;;6039528;23;88390;-71
2021/12/08 06:08:51;;;;;;;6.20;4.93;;;6.60;85.70;;;;;;6039942;23;87961;-72
2021/12/08 06:11:22;;;;;;;6.30;5.50;;;6.50;85.10;;;;;;6039849;23;89854;-72
2021/12/08 06:13:49;;;;;;;7.85;5.90;;;6.40;85.80;;;;;;6039282;23;89374;-71
2021/12/08 06:16:21;;;;;;;6.03;5.40;;;6.40;85.70;;;;;;6013453;23;91396;-71
2021/12/08 06:18:51;;;;;;;7.30;5.75;;;6.30;85.60;;;;;;6039833;23;87919;-71
2021/12/08 06:21:23;;;;;;;7.93;5.68;;;6.30;86.00;;;;;;6039477;23;88109;-71
2021/12/08 06:23:51;;;;;;;9.32;5.30;;;6.20;86.10;;;;;;6039729;23;88467;-72
2021/12/08 06:26:21;;;;;;;9.45;5.68;;;6.20;85.90;;;;;;6039548;23;88485;-71
2021/12/08 06:28:48;;;;;;;8.43;6.32;;;6.10;85.90;;;;;;6014495;23;88375;-73
2021/12/08 06:31:18;;;;;;;8.93;5.20;;;6.10;86.70;;;;;;6013061;23;109209;-72
2021/12/08 06:33:46;;;;;;;9.02;6.32;;;6.10;86.40;;;;;;6039355;23;88623;-72
2021/12/08 06:36:21;;;;;;;7.15;5.57;;;6.00;86.50;;;;;;6039254;23;88280;-72
2021/12/08 06:38:48;;;;;;;7.07;6.38;;;6.10;86.70;;;;;;6039192;23;88687;-72
2021/12/08 06:41:30;;;;;;;6.55;4.68;;;6.00;86.90;;;;;;6039343;23;88534;-72
2021/12/08 06:44:06;;;;;;;8.27;5.72;;;6.10;86.90;;;;;;6013576;23;93190;-72
2021/12/08 06:46:33;;;;;;;9.25;6.57;;;6.10;86.70;;;;;;6015194;23;89852;-72
2021/12/08 06:49:03;;;;;;;7.03;5.20;;;6.10;86.60;;;;;;6014005;23;89165;-67
2021/12/08 06:51:39;;;;;;;8.30;5.50;;;6.00;86.50;;;;;;6039113;23;88129;-67
2021/12/08 06:54:12;;;;;;;6.35;5.15;;;6.00;86.40;;;;;;6039229;23;88522;-68
2021/12/08 06:56:47;;;;;;;10.23;6.00;;;6.00;86.70;;;;;;6039737;23;91911;-68
2021/12/08 06:59:21;;;;;;;6.60;4.72;;;6.00;87.10;;;;;;6013425;23;88040;-67
2021/12/08 07:02:06;;;;;;;6.10;5.05;;;6.00;87.10;;;;;;6039671;23;88228;-67
2021/12/08 07:07:24;;;;;;;6.20;5.65;;;6.10;87.20;;;;;;6039121;23;88041;-67
2021/12/08 07:10:11;;;;;;;9.65;6.00;;;6.10;87.90;;;;;;6037813;23;88022;-67
2021/12/08 07:12:42;;;;;;;7.85;6.05;;;6.10;87.10;;;;;;6039282;23;87954;-67
2021/12/08 07:15:47;;;;;;;6.47;5.75;;;6.10;87.50;;;;;;6038970;23;88613;-67
2021/12/08 07:18:18;;;;;;;;;;;6.30;87.70;;;;;;6039246;23;91822;-68
2021/12/08 07:20:51;;;;;;;7.85;5.93;;;6.20;86.60;;;;;;6015227;23;87906;-71
2021/12/08 07:23:49;;;;;;;6.55;4.90;;;6.30;86.90;;;;;;6013826;23;89288;-71
2021/12/08 07:26:20;;;;;;;7.53;5.18;;;6.30;86.70;;;;;;6034498;23;88683;-67
2021/12/08 07:28:49;;;;;;;7.68;5.25;;;6.20;86.60;;;;;;6039245;23;88321;-67
2021/12/08 07:31:31;;;;;;;6.75;4.55;;;6.30;86.50;;;;;;6036594;23;92859;-67
2021/12/08 07:34:05;;;;;;;7.93;5.40;;;6.30;86.50;;;;;;6039179;23;88121;-71
2021/12/08 07:36:38;;;;;;;11.63;6.35;;;6.30;85.90;;;;;;6038893;23;88462;-71
2021/12/08 07:39:09;;;;;;;8.77;5.30;;;6.30;86.00;;;;;;6039081;23;88439;-71
2021/12/08 07:41:40;;;;;;;8.52;4.72;;;6.30;85.70;;;;;;6039143;23;87938;-72
2021/12/08 07:44:11;;;;;;;8.13;4.90;;;6.30;86.30;;;;;;6039282;23;87997;-68
2021/12/08 07:47:02;;;;;;;9.13;5.00;;;6.30;85.80;;;;;;6014851;23;88519;-68
2021/12/08 07:49:38;;;;;;;6.35;4.63;;;6.30;85.90;;;;;;6040614;23;88485;-67
2021/12/08 07:52:08;;;;;;;6.90;4.90;;;6.20;86.20;;;;;;6039495;23;88152;-67
2021/12/08 07:54:36;;;;;;;7.18;3.95;;;6.30;86.40;;;;;;6040061;23;88355;-67
2021/12/08 07:57:07;;;;;;;5.60;4.03;;;6.30;86.80;;;;;;6014265;23;89142;-67
2021/12/08 07:59:37;;;;;;;7.43;4.32;;;6.40;86.20;;;;;;6040012;23;89020;-67
2021/12/08 08:02:07;;;;;;;8.65;3.38;;;6.40;85.90;;;;;;6040368;23;87899;-67
2021/12/08 08:04:39;;;;;;;7.82;4.35;;;6.50;86.00;;;;;;6040022;23;88124;-68
2021/12/08 08:07:08;;;;;;;6.38;3.92;;;6.50;85.90;;;;;;6014857;23;88496;-67
2021/12/08 08:09:39;;;;;;;9.30;3.55;;;6.50;85.40;;;;;;6039329;23;101695;-67
2021/12/08 08:12:12;;;;;;;5.45;3.63;;;6.50;84.90;;;;;;6040399;23;87945;-67
2021/12/08 08:14:44;;;;;;;6.68;2.85;;;6.50;85.20;;;;;;6040385;23;88180;-68
2021/12/08 08:17:15;;;;;;;7.45;3.33;;;6.60;85.00;;;;;;6040450;23;88428;-68
2021/12/08 08:19:48;;;;;;;5.15;2.83;;;6.60;84.90;;;;;;6014700;23;88398;-68
2021/12/08 08:22:23;;;;;;;6.15;2.95;;;6.60;84.50;;;;;;6039960;23;88743;-67
2021/12/08 08:24:56;;;;;;;3.65;2.50;;;6.70;84.50;;;;;;6014923;23;89205;-67
2021/12/08 08:27:25;;;;;;;6.35;2.47;;;6.70;84.10;;;;;;6040026;23;88500;-67
2021/12/08 08:29:54;;;;;;;4.25;2.30;;;6.70;83.90;;;;;;6040273;23;87910;-67
2021/12/08 08:32:29;;;;;;;5.05;2.15;;;6.70;83.40;;;;;;6039971;23;87995;-72
2021/12/08 08:35:04;;;;;;;7.18;2.42;;;6.70;83.90;;;;;;6040302;23;88713;-72
2021/12/08 08:37:32;;;;;;;2.95;2.40;;;6.80;83.70;;;;;;6039901;23;88454;-73
2021/12/08 08:40:03;;;;;;;5.50;2.30;;;6.90;83.50;;;;;;6040734;23;88292;-71
2021/12/08 08:42:34;;;;;;;7.97;2.58;;;7.00;83.60;;;;;;6014689;23;88252;-72
2021/12/08 08:45:12;;;;;;;5.95;2.75;;;7.10;82.60;;;;;;5991262;23;89300;-72
2021/12/08 08:47:53;;;;;;;7.85;2.20;;;7.10;82.30;;;;;;6039402;23;89254;-72
2021/12/08 08:50:26;;;;;;;6.55;2.03;;;7.20;82.20;;;;;;6039918;23;93824;-72
2021/12/08 08:52:56;;;;;;;4.65;2.03;;;7.20;81.70;;;;;;6014110;23;88012;-73
2021/12/08 08:56:13;;;;;;;4.72;1.90;;;7.20;81.60;;;;;;6039540;23;88161;-73
2021/12/08 08:58:45;;;;;;;6.70;2.35;;;7.30;81.10;;;;;;6020464;23;88610;-73
2021/12/08 09:01:37;;;;;;;9.90;2.30;;;7.40;81.00;;;;;;6040253;23;88354;-67
2021/12/08 09:04:11;;;;;;;7.47;2.33;;;7.40;80.80;;;;;;6039722;23;88030;-67
2021/12/08 09:06:43;;;;;;;;;;;7.50;80.50;;;;;;6040791;23;88036;-67
2021/12/08 09:09:23;;;;;;;9.50;1.92;;;7.40;80.40;;;;;;6015115;23;88774;-67
2021/12/08 09:11:55;;;;;;;8.18;1.73;;;7.50;80.20;;;;;;6039883;23;88072;-68
2021/12/08 09:14:30;;;;;;;5.90;1.75;;;7.50;80.00;;;;;;6039620;23;88728;-67
2021/12/08 09:17:03;;;;;;;6.88;1.85;;;7.60;79.70;;;;;;6014427;23;89732;-67
2021/12/08 09:19:46;;;;;;;5.32;2.03;;;7.60;79.70;;;;;;6014259;23;89298;-68
2021/12/08 09:22:22;;;;;;;8.80;2.20;;;7.70;79.90;;;;;;6040092;23;88432;-68
2021/12/08 09:24:54;;;;;;;5.93;2.50;;;7.70;80.10;;;;;;6039894;23;88022;-68
2021/12/08 09:27:35;;;;;;;6.18;1.88;;;7.70;79.50;;;;;;6039938;23;91732;-68
2021/12/08 09:30:14;;;;;;;4.00;1.65;;;7.80;79.20;;;;;;6040151;23;88535;-67
2021/12/08 09:32:50;;;;;;;5.78;1.92;;;7.90;78.50;;;;;;6040117;23;88295;-68
2021/12/08 09:35:25;;;;;;;8.13;2.20;;;8.10;78.40;;;;;;6040039;23;87887;-67
2021/12/08 09:38:08;;;;;;;5.63;2.08;;;8.20;78.30;;;;;;6039626;23;87995;-68
2021/12/08 09:40:44;;;;;;;7.57;1.88;;;8.30;77.10;;;;;;6037584;23;90597;-68
2021/12/08 09:43:20;;;;;;;9.95;2.78;;;8.30;77.10;;;;;;6039767;23;89129;-67
2021/12/08 09:45:56;;;;;;;6.55;2.22;;;8.40;76.80;;;;;;6039759;23;87978;-67
2021/12/08 09:48:27;;;;;;;4.78;2.33;;;8.40;76.40;;;;;;6040000;23;88251;-68
2021/12/08 09:50:57;;;;;;;8.27;1.85;;;8.40;76.10;;;;;;6039574;23;88509;-68
2021/12/08 09:53:26;;;;;;;8.95;2.00;;;8.40;76.10;;;;;;6014010;23;92111;-68
2021/12/08 09:55:55;;;;;;;6.13;2.17;;;8.40;76.40;;;;;;6039610;23;87935;-68
2021/12/08 09:58:22;;;;;;;6.35;2.30;;;8.40;76.00;;;;;;6039577;23;104499;-67
2021/12/08 10:00:53;;;;;;;6.28;2.22;;;8.40;76.30;;;;;;6039499;23;88530;-67
2021/12/08 10:03:21;;;;;;;5.53;1.80;;;8.40;76.80;;;;;;6062504;23;89473;-68
2021/12/08 10:05:49;;;;;;;11.32;2.42;;;8.50;75.60;;;;;;6039306;23;89411;-67
2021/12/08 10:08:16;;;;;;;6.75;2.35;;;8.50;75.10;;;;;;6039017;23;88021;-68
2021/12/08 10:10:46;;;;;;;6.25;2.53;;;8.60;74.90;;;;;;6039457;23;88002;-67
2021/12/08 10:13:14;;;;;;;3.92;2.50;;;8.60;74.80;;;;;;6039758;23;88440;-67
2021/12/08 10:15:42;;;;;;;8.70;2.53;;;8.60;75.00;;;;;;6013493;23;88020;-68
2021/12/08 10:18:09;;;;;;;6.88;2.72;;;8.60;74.70;;;;;;6039637;23;89597;-67
2021/12/08 10:20:45;;;;;;;8.73;2.97;;;8.70;74.80;;;;;;6039481;23;88648;-67
2021/12/08 10:23:23;;;;;;;7.55;2.85;;;8.80;74.40;;;;;;6040215;23;88510;-67
2021/12/08 10:26:18;;;;;;;9.30;2.35;;;8.90;73.80;;;;;;6039501;23;87959;-67
2021/12/08 10:28:52;;;;;;;7.13;2.40;;;9.00;73.20;;;;;;6010401;23;94173;-67
2021/12/08 10:31:31;;;;;;;12.75;3.25;;;9.10;73.00;;;;;;6061963;23;90513;-67
2021/12/08 10:34:05;;;;;;;6.25;2.28;;;9.10;72.50;;;;;;6039341;23;89213;-68
2021/12/08 10:36:53;;;;;;;5.43;2.20;;;9.10;72.30;;;;;;6039795;23;88048;-67
2021/12/08 10:39:26;;;;;;;8.25;2.35;;;9.10;72.30;;;;;;6039683;23;87895;-68
2021/12/08 10:41:59;;;;;;;7.03;2.15;;;9.10;71.90;;;;;;6039174;23;88559;-67
2021/12/08 10:44:51;;;;;;;7.75;2.50;;;9.10;72.10;;;;;;6037710;23;89542;-68
2021/12/08 10:47:28;;;;;;;6.32;2.38;;;9.10;71.90;;;;;;6037866;23;88118;-68
2021/12/08 10:55:20;;;;;;;11.02;2.22;;;9.00;72.10;;;;;;6039453;23;88377;-68
2021/12/08 10:57:50;;;;;;;7.07;2.78;;;9.00;71.60;;;;;;6061565;23;88723;-68
2021/12/08 11:00:24;;;;;;;7.13;2.30;;;9.10;71.70;;;;;;6039475;23;88224;-68
2021/12/08 11:02:57;;;;;;;9.40;2.72;;;9.10;72.30;;;;;;6039191;23;88664;-68
2021/12/08 11:05:24;;;;;;;4.40;2.50;;;9.10;71.50;;;;;;6039470;23;88461;-68
2021/12/08 11:07:57;;;;;;;6.20;1.90;;;9.20;71.80;;;;;;6038735;23;96424;-68
2021/12/08 11:10:24;;;;;;;7.05;2.40;;;9.30;71.20;;;;;;6037828;23;89218;-68
2021/12/08 11:12:53;;;;;;;8.48;2.28;;;9.20;71.10;;;;;;6038993;23;88515;-67
2021/12/08 11:15:23;;;;;;;6.20;2.28;;;9.20;71.80;;;;;;6039433;23;89809;-68
2021/12/08 11:18:10;;;;;;;7.63;2.13;;;9.10;71.20;;;;;;6038986;23;87969;-68
2021/12/08 11:20:50;;;;;;;7.13;2.70;;;9.10;70.80;;;;;;6040553;23;88355;-68
2021/12/08 11:23:45;;;;;;;3.38;2.30;;;9.10;71.20;;;;;;6040046;23;90764;-71
2021/12/08 11:26:25;;;;;;;4.15;1.80;;;9.00;70.90;;;;;;6040362;23;89483;-71
2021/12/08 11:29:00;;;;;;;7.47;2.45;;;8.90;71.00;;;;;;6040352;23;88042;-72
2021/12/08 11:31:31;;;;;;;6.57;2.22;;;8.90;71.10;;;;;;6040646;23;89050;-72
2021/12/08 11:34:00;;;;;;;5.43;2.33;;;8.90;71.80;;;;;;6040223;23;88809;-72
2021/12/08 11:36:32;;;;;;;5.10;2.47;;;8.90;71.80;;;;;;6040478;23;90264;-72
2021/12/08 11:39:10;;;;;;;8.68;2.72;;;9.00;71.70;;;;;;6014454;23;88118;-72
2021/12/08 11:41:40;;;;;;;6.47;2.53;;;9.00;71.50;;;;;;6015371;23;88079;-72
2021/12/08 11:44:15;;;;;;;6.30;2.53;;;9.00;71.10;;;;;;6040074;23;88673;-71
2021/12/08 11:47:00;;;;;;;6.38;2.40;;;9.00;71.00;;;;;;6040157;23;88244;-72
2021/12/08 11:49:27;;;;;;;5.50;2.40;;;9.10;71.00;;;;;;6040096;23;88717;-72
2021/12/08 11:51:59;;;;;;;3.38;2.08;;;9.10;71.10;;;;;;6039780;23;88087;-71
2021/12/08 11:54:48;;;;;;;6.63;2.45;;;9.20;70.30;;;;;;6040337;23;88569;-71
2021/12/08 11:57:25;;;;;;;6.82;2.20;;;9.30;70.40;;;;;;6040003;23;88351;-71
2021/12/08 12:00:14;;;;;;;5.43;2.40;;;9.30;70.20;;;;;;6040211;23;88041;-71
2021/12/08 12:02:58;;;;;;;5.70;2.33;;;9.30;69.70;;;;;;6040388;23;88080;-71
2021/12/08 12:05:37;;;;;;;7.53;2.30;;;9.30;69.50;;;;;;6039808;23;88638;-71
2021/12/08 12:08:07;;;;;;;7.60;2.28;;;9.40;69.70;;;;;;6040271;23;88352;-71
2021/12/08 12:10:38;;;;;;;8.02;2.72;;;9.40;69.90;;;;;;6040076;23;87982;-72
2021/12/08 12:13:09;;;;;;;5.60;1.92;;;9.40;69.70;;;;;;6039651;23;88252;-72
2021/12/08 12:15:41;;;;;;;8.52;2.00;;;9.30;69.90;;;;;;6039476;23;89275;-71
2021/12/08 12:18:09;;;;;;;9.13;2.80;;;9.30;70.30;;;;;;6039410;23;89222;-72
2021/12/08 12:20:39;;;;;;;8.25;2.80;;;9.30;70.10;;;;;;6039481;23;103628;-71
2021/12/08 12:23:33;;;;;;;5.53;2.10;;;9.40;69.80;;;;;;6039746;23;88172;-71
2021/12/08 12:26:28;;;;;;;5.75;2.17;;;9.40;69.80;;;;;;6040102;23;88865;-72
2021/12/08 12:29:06;;;;;;;4.93;1.90;;;9.40;69.30;;;;;;6040226;23;88064;-71
2021/12/08 12:32:13;;;;;;;9.15;1.95;;;9.40;69.20;;;;;;6039710;23;89809;-72
2021/12/08 12:34:40;;;;;;;4.93;1.95;;;9.40;69.00;;;;;;6038557;23;89421;-71
2021/12/08 12:37:16;;;;;;;8.18;2.30;;;9.40;68.50;;;;;;6039713;23;87978;-72
2021/12/08 12:39:48;;;;;;;6.40;2.35;;;9.50;68.50;;;;;;6039736;23;88206;-71
2021/12/08 12:42:17;;;;;;;5.65;2.25;;;9.40;68.80;;;;;;6039454;23;88656;-68
2021/12/08 12:45:02;;;;;;;6.80;2.30;;;9.40;68.50;;;;;;6014332;23;89354;-68
2021/12/08 12:47:31;;;;;;;5.28;2.03;;;9.40;68.30;;;;;;6040531;23;89213;-68
2021/12/08 12:50:09;;;;;;;10.50;2.65;;;9.40;68.60;;;;;;6040030;23;88422;-68
2021/12/08 12:52:43;;;;;;;2.85;1.58;;;9.40;68.80;;;;;;6039766;23;88314;-67
2021/12/08 12:55:18;;;;;;;5.57;1.80;;;9.30;69.40;;;;;;6013967;23;89346;-67
2021/12/08 12:58:04;;;;;;;5.00;2.28;;;9.30;68.60;;;;;;6037041;23;92927;-68
2021/12/08 13:00:34;;;;;;;6.13;2.13;;;9.40;67.90;;;;;;6035963;23;93143;-67
2021/12/08 13:03:03;;;;;;;6.00;2.10;;;9.30;68.30;;;;;;6037391;23;92471;-67
2021/12/08 13:05:47;;;;;;;6.97;1.92;;;9.40;68.40;;;;;;6036862;23;96220;-68
2021/12/08 13:08:30;;;;;;;3.42;1.92;;;9.40;67.90;;;;;;6035215;23;95298;-68
2021/12/08 13:11:00;;;;;;;6.28;2.25;;;9.40;67.50;;;;;;6011453;23;95346;-68
2021/12/08 13:13:28;;;;;;;6.10;2.00;;;9.40;67.50;;;;;;6037002;23;92707;-67
2021/12/08 13:15:55;;;;;;;4.05;1.85;;;9.40;67.90;;;;;;6036970;23;92454;-68
2021/12/08 13:18:23;;;;;;;6.78;1.88;;;9.40;67.60;;;;;;6036705;23;93028;-67
2021/12/08 13:20:58;;;;;;;7.18;1.98;;;9.30;68.30;;;;;;6037167;23;92795;-68
2021/12/08 13:23:29;;;;;;;7.43;2.22;;;9.30;67.80;;;;;;6011497;23;92835;-68
2021/12/08 13:26:07;;;;;;;6.03;2.17;;;9.30;67.80;;;;;;6037583;23;92180;-68
2021/12/08 13:29:06;;;;;;;4.47;2.10;;;9.30;68.10;;;;;;6037126;23;92997;-67
2021/12/08 13:31:37;;;;;;;5.90;2.53;;;9.30;68.30;;;;;;6036436;23;92950;-67
2021/12/08 13:34:05;;;;;;;6.47;1.77;;;9.40;68.40;;;;;;6035666;23;95192;-67
2021/12/08 13:36:44;;;;;;;7.85;2.13;;;9.40;67.80;;;;;;6037177;23;92398;-68
2021/12/08 13:39:25;;;;;;;6.28;2.35;;;9.40;68.10;;;;;;6036760;23;92986;-68
2021/12/08 13:42:29;;;;;;;7.20;1.73;;;9.30;67.70;;;;;;6036758;23;92731;-68
2021/12/08 13:45:01;;;;;;;;;;;9.20;68.30;;;;;;6012507;23;92401;-68
2021/12/08 13:47:37;;;;;;;7.80;2.90;;;9.10;68.00;;;;;;6038473;23;92788;-71
2021/12/08 13:50:10;;;;;;;5.60;2.10;;;9.20;68.30;;;;;;6035685;23;94059;-71
2021/12/08 13:52:41;;;;;;;4.07;1.43;;;9.10;68.20;;;;;;6036708;23;92785;-71
2021/12/08 13:55:08;;;;;;;7.80;2.28;;;9.10;68.10;;;;;;6036889;23;92297;-72
2021/12/08 13:57:35;;;;;;;4.03;1.70;;;9.10;68.00;;;;;;6036835;23;92398;-71
2021/12/08 14:00:40;;;;;;;6.50;2.10;;;9.10;68.30;;;;;;6035293;23;95294;-71
2021/12/08 14:03:09;;;;;;;;;;;9.10;68.30;;;;;;6037355;23;96825;-72
2021/12/08 14:05:52;;;;;;;6.30;1.98;;;9.00;68.20;;;;;;6038349;23;92294;-71
2021/12/08 14:08:29;;;;;;;5.88;1.80;;;9.10;68.60;;;;;;6036970;23;92446;-71
2021/12/08 14:11:02;;;;;;;4.43;1.70;;;9.10;68.60;;;;;;6036921;23;93006;-67
2021/12/08 14:13:32;;;;;;;7.22;1.73;;;9.10;68.60;;;;;;6036641;23;92982;-67
2021/12/08 14:16:03;;;;;;;5.80;1.65;;;9.10;68.60;;;;;;6037069;23;92354;-72
2021/12/08 14:18:35;;;;;;;7.65;2.05;;;9.10;68.50;;;;;;6036945;23;91652;-72
2021/12/08 14:21:06;;;;;;;4.40;1.65;;;9.10;68.90;;;;;;6036837;23;93077;-71